Terminal Aerodrome Forecast
Issued by NWS

Home | Current Version | Previous Version | Text Only | Print | Product List | Glossary On
Versions: 1 2 3 4 5 6 7 8 9 10 11 12 13 14 15 16 17 18 19 20 21 22 23 24 25 26 27 28 29 30 31 32 33 34 35 36 37 38 39 40 41 42 43 44 45 46
111
FTUS41 KBTV 280535
TAFPBG
TAF
KPBG 280535Z 2806/2906 00000KT P6SM VCSH SCT029 OVC040
      TEMPO 2806/2810 BKN029
     FM281000 VRB03KT P6SM VCSH OVC027
     FM281700 22006KT P6SM OVC040
     FM282000 25005KT P6SM BKN060
     FM290300 VRB03KT P6SM OVC040=

USA.gov is the U.S. government's official web portal to all federal, state and local government web resources and services.